createdAt,value
2022-11-23T00:00:32.962Z,5.50
2022-11-23T00:03:02.106Z,5.43
2022-11-23T00:05:31.160Z,4.93
2022-11-23T00:07:58.875Z,3.87
2022-11-23T00:10:26.672Z,5.90
2022-11-23T00:12:54.406Z,2.67
2022-11-23T00:15:22.136Z,5.43
2022-11-23T00:17:49.873Z,4.13
2022-11-23T00:20:19.298Z,5.57
2022-11-23T00:22:46.990Z,4.40
2022-11-23T00:25:14.920Z,2.80
2022-11-23T00:27:42.699Z,6.47
2022-11-23T00:30:11.906Z,4.33
2022-11-23T00:32:39.654Z,4.47
2022-11-23T00:35:08.621Z,2.87
2022-11-23T00:37:37.721Z,2.00
2022-11-23T00:40:06.776Z,3.20
2022-11-23T00:42:38.098Z,3.97
2022-11-23T00:45:06.925Z,3.23
2022-11-23T00:47:34.813Z,5.23
2022-11-23T00:50:02.605Z,4.00
2022-11-23T00:52:30.378Z,4.57
2022-11-23T00:54:59.452Z,3.27
2022-11-23T00:57:27.185Z,3.17
2022-11-23T00:59:54.934Z,3.50
2022-11-23T01:02:25.174Z,3.27
2022-11-23T01:04:52.930Z,2.47
2022-11-23T01:07:22.036Z,3.93
2022-11-23T01:09:49.830Z,3.53
2022-11-23T01:12:18.906Z,1.40
2022-11-23T01:14:48.439Z,3.07
2022-11-23T01:17:16.311Z,3.43
2022-11-23T01:19:44.074Z,3.60
2022-11-23T01:22:13.874Z,2.47
2022-11-23T01:24:43.315Z,2.57
2022-11-23T01:27:11.098Z,2.30
2022-11-23T01:29:40.181Z,2.43
2022-11-23T01:32:07.932Z,1.77
2022-11-23T01:34:35.681Z,2.93
2022-11-23T01:37:03.431Z,2.33
2022-11-23T01:39:31.348Z,2.10
2022-11-23T01:41:59.397Z,3.43
2022-11-23T01:44:31.925Z,4.07
2022-11-23T01:47:02.549Z,4.67
2022-11-23T01:49:34.771Z,3.67
2022-11-23T01:52:06.215Z,2.67
2022-11-23T01:54:37.567Z,4.50
2022-11-23T01:57:10.222Z,4.20
2022-11-23T01:59:38.909Z,1.67
2022-11-23T02:02:09.743Z,1.57
2022-11-23T02:04:43.193Z,3.23
2022-11-23T02:07:15.761Z,1.97
2022-11-23T02:09:47.673Z,2.77
2022-11-23T02:12:15.954Z,4.40
2022-11-23T02:14:45.540Z,2.63
2022-11-23T02:17:14.971Z,2.40
2022-11-23T02:19:53.618Z,3.17
2022-11-23T02:22:30.407Z,5.40
2022-11-23T02:24:59.529Z,4.60
2022-11-23T02:27:28.803Z,2.97
2022-11-23T02:30:01.465Z,4.77
2022-11-23T02:32:30.793Z,3.67
2022-11-23T02:34:58.586Z,2.37
2022-11-23T02:37:26.467Z,8.63
2022-11-23T02:39:55.638Z,6.30
2022-11-23T02:42:25.726Z,4.63
2022-11-23T02:45:06.435Z,4.70
2022-11-23T02:47:34.137Z,3.33
2022-11-23T02:50:02.124Z,7.17
2022-11-23T02:52:29.886Z,3.63
2022-11-23T02:54:58.030Z,3.33
2022-11-23T02:57:25.808Z,7.03
2022-11-23T02:59:53.658Z,4.83
2022-11-23T03:02:22.812Z,5.30
2022-11-23T03:04:50.601Z,4.60
2022-11-23T03:07:21.172Z,3.30
2022-11-23T03:09:50.887Z,4.13
2022-11-23T03:12:20.270Z,6.97
2022-11-23T03:14:48.558Z,3.90
2022-11-23T03:17:17.072Z,6.97
2022-11-23T03:19:47.738Z,4.40
2022-11-23T03:22:15.669Z,6.13
2022-11-23T03:24:43.423Z,3.83
2022-11-23T03:27:16.489Z,4.17
2022-11-23T03:29:44.919Z,4.03
2022-11-23T03:32:18.066Z,7.20
2022-11-23T03:34:50.494Z,4.97
2022-11-23T03:37:29.508Z,5.50
2022-11-23T03:39:57.680Z,4.10
2022-11-23T03:42:54.509Z,3.97
2022-11-23T03:45:22.317Z,3.93
2022-11-23T03:47:50.555Z,4.20
2022-11-23T03:50:20.870Z,4.53
2022-11-23T03:52:49.693Z,3.77
2022-11-23T03:55:18.087Z,7.33
2022-11-23T03:57:48.658Z,4.77
2022-11-23T04:00:17.487Z,2.50
2022-11-23T04:02:47.047Z,2.23
2022-11-23T04:05:36.201Z,3.30
2022-11-23T04:08:34.388Z,4.53
2022-11-23T04:11:07.239Z,4.87
2022-11-23T04:13:38.599Z,4.07
2022-11-23T04:16:08.176Z,3.70
2022-11-23T04:18:36.125Z,6.40
2022-11-23T04:21:05.558Z,3.47
2022-11-23T04:23:33.396Z,4.70
2022-11-23T04:26:02.296Z,4.63
2022-11-23T04:28:31.242Z,5.33
2022-11-23T04:30:59.190Z,3.57
2022-11-23T04:33:31.815Z,5.23
2022-11-23T04:36:00.085Z,5.37
2022-11-23T04:38:29.174Z,4.53
2022-11-23T04:40:57.442Z,6.13
2022-11-23T04:43:25.772Z,2.90
2022-11-23T04:45:53.579Z,3.97
2022-11-23T04:48:26.787Z,4.23
2022-11-23T04:50:56.331Z,5.23
2022-11-23T04:53:32.346Z,2.70
2022-11-23T04:56:01.024Z,4.77
2022-11-23T04:58:34.522Z,4.43
2022-11-23T05:01:03.244Z,3.37
2022-11-23T05:03:35.856Z,4.80
2022-11-23T05:06:07.369Z,4.07
2022-11-23T05:08:41.890Z,4.30
2022-11-23T05:11:27.073Z,4.27
2022-11-23T05:14:00.197Z,4.00
2022-11-23T05:16:29.815Z,3.40
2022-11-23T05:18:57.806Z,4.73
2022-11-23T05:21:25.950Z,5.97
2022-11-23T05:23:56.625Z,4.83
2022-11-23T05:26:24.461Z,3.13
2022-11-23T05:28:53.820Z,6.43
2022-11-23T05:31:22.037Z,4.23
2022-11-23T05:33:49.934Z,5.03
2022-11-23T05:36:25.017Z,5.03
2022-11-23T05:38:52.802Z,6.30
2022-11-23T05:41:29.192Z,6.03
2022-11-23T05:44:00.333Z,4.67
2022-11-23T05:46:30.329Z,3.73
2022-11-23T05:48:58.156Z,7.37
2022-11-23T05:51:27.132Z,5.70
2022-11-23T05:53:57.068Z,5.00
2022-11-23T05:56:40.463Z,7.37
2022-11-23T05:59:16.122Z,6.47
2022-11-23T06:01:48.622Z,6.07
2022-11-23T06:04:24.302Z,6.30
2022-11-23T06:06:54.394Z,4.90
2022-11-23T06:09:22.204Z,7.20
2022-11-23T06:11:54.256Z,4.90
2022-11-23T06:14:23.346Z,6.57
2022-11-23T06:16:52.215Z,5.70
2022-11-23T06:19:31.716Z,4.93
2022-11-23T06:22:00.030Z,6.03
2022-11-23T06:24:31.778Z,5.67
2022-11-23T06:27:29.922Z,4.97
2022-11-23T06:29:58.137Z,3.53
2022-11-23T06:32:28.415Z,5.17
2022-11-23T06:35:00.499Z,3.17
2022-11-23T06:37:30.849Z,3.53
2022-11-23T06:39:58.585Z,3.97
2022-11-23T06:42:42.833Z,2.60
2022-11-23T06:45:20.818Z,3.77
2022-11-23T06:47:52.057Z,4.03
2022-11-23T06:50:20.154Z,5.07
2022-11-23T06:52:49.470Z,3.03
2022-11-23T06:55:19.083Z,3.53
2022-11-23T06:57:47.242Z,5.60
2022-11-23T07:00:16.019Z,6.70
2022-11-23T07:02:52.037Z,3.77
2022-11-23T07:05:22.728Z,5.53
2022-11-23T07:07:51.038Z,4.20
2022-11-23T07:10:25.757Z,7.97
2022-11-23T07:13:04.975Z,6.83
2022-11-23T07:15:33.613Z,5.93
2022-11-23T07:18:03.753Z,6.40
2022-11-23T07:20:32.964Z,5.37
2022-11-23T07:23:01.673Z,6.10
2022-11-23T07:25:29.655Z,7.67
2022-11-23T07:27:58.432Z,6.20
2022-11-23T07:30:29.537Z,6.13
2022-11-23T07:33:01.127Z,6.13
2022-11-23T07:35:31.669Z,8.07
2022-11-23T07:38:00.411Z,4.80
2022-11-23T07:40:28.530Z,6.07
2022-11-23T07:43:00.874Z,4.77
2022-11-23T07:45:28.678Z,6.53
2022-11-23T07:48:00.932Z,8.33
2022-11-23T07:50:30.401Z,5.70
2022-11-23T07:52:58.107Z,5.63
2022-11-23T07:55:26.086Z,7.03
2022-11-23T07:57:54.607Z,5.83
2022-11-23T08:00:23.166Z,5.37
2022-11-23T08:03:19.284Z,3.83
2022-11-23T08:05:40.193Z,9.13
2022-11-23T08:08:08.026Z,7.87
2022-11-23T08:10:41.944Z,8.73
2022-11-23T08:13:12.135Z,6.37
2022-11-23T08:15:39.875Z,7.37
2022-11-23T08:18:07.701Z,7.40
2022-11-23T08:20:35.445Z,7.73
2022-11-23T08:23:04.592Z,5.50
2022-11-23T08:25:32.315Z,10.57
2022-11-23T08:28:01.701Z,8.23
2022-11-23T08:30:31.008Z,4.80
2022-11-23T08:32:59.217Z,8.10
2022-11-23T08:35:27.058Z,9.47
2022-11-23T08:37:54.813Z,8.00
2022-11-23T08:40:25.848Z,10.00
2022-11-23T08:42:54.023Z,7.43
2022-11-23T08:45:22.201Z,7.47
2022-11-23T08:47:50.894Z,11.23
2022-11-23T08:50:18.895Z,8.17
2022-11-23T08:52:46.760Z,7.50
2022-11-23T08:55:14.658Z,6.83
2022-11-23T08:57:43.971Z,7.67
2022-11-23T09:00:12.547Z,7.47
2022-11-23T09:02:40.307Z,6.30
2022-11-23T09:05:09.319Z,9.63
2022-11-23T09:07:37.106Z,8.63
2022-11-23T09:10:05.773Z,11.13
2022-11-23T09:12:34.172Z,8.70
2022-11-23T09:15:03.291Z,7.97
2022-11-23T09:17:32.312Z,7.90
2022-11-23T09:20:00.206Z,11.83
2022-11-23T09:22:28.149Z,10.13
2022-11-23T09:24:59.013Z,9.40
2022-11-23T09:27:26.964Z,9.73
2022-11-23T09:29:54.665Z,8.57
2022-11-23T09:32:23.857Z,7.73
2022-11-23T09:34:51.629Z,8.07
2022-11-23T09:37:19.434Z,6.63
2022-11-23T09:39:47.251Z,8.13
2022-11-23T09:42:51.646Z,8.70
2022-11-23T09:45:27.676Z,9.13
2022-11-23T09:48:19.344Z,10.43
2022-11-23T09:50:49.457Z,9.33
2022-11-23T09:53:22.621Z,8.57
2022-11-23T09:55:52.727Z,8.40
2022-11-23T09:58:23.546Z,8.27
2022-11-23T10:01:01.981Z,7.17
2022-11-23T10:03:34.646Z,8.57
2022-11-23T10:06:08.294Z,9.87
2022-11-23T10:08:44.231Z,3.50
2022-11-23T10:11:31.774Z,5.60
2022-11-23T10:14:15.213Z,8.40
2022-11-23T10:16:54.650Z,8.60
2022-11-23T10:19:33.453Z,7.37
2022-11-23T10:22:10.155Z,8.20
2022-11-23T10:24:44.246Z,6.20
2022-11-23T10:27:16.458Z,7.03
2022-11-23T10:29:44.814Z,11.30
2022-11-23T10:32:26.105Z,9.53
2022-11-23T10:35:03.370Z,9.07
2022-11-23T10:37:31.546Z,6.03
2022-11-23T10:39:59.273Z,5.83
2022-11-23T10:42:33.337Z,7.80
2022-11-23T10:45:01.813Z,5.10
2022-11-23T10:47:42.787Z,5.27
2022-11-23T10:50:27.410Z,5.13
2022-11-23T10:52:57.952Z,5.13
2022-11-23T10:55:29.394Z,5.70
2022-11-23T10:57:58.161Z,9.63
2022-11-23T11:00:30.824Z,5.83
2022-11-23T11:03:00.418Z,8.03
2022-11-23T11:08:25.518Z,7.07
2022-11-23T11:10:59.804Z,5.23
2022-11-23T11:13:31.079Z,4.93
2022-11-23T11:16:01.710Z,4.53
2022-11-23T11:18:32.284Z,6.53
2022-11-23T11:21:05.741Z,6.20
2022-11-23T11:23:37.133Z,7.10
2022-11-23T11:26:10.180Z,5.87
2022-11-23T11:28:43.098Z,6.80
2022-11-23T11:31:28.582Z,5.80
2022-11-23T11:34:03.202Z,5.07
2022-11-23T11:36:38.746Z,7.70
2022-11-23T11:39:19.350Z,7.13
2022-11-23T11:41:50.084Z,4.80
2022-11-23T11:44:22.269Z,8.20
2022-11-23T11:46:55.685Z,6.87
2022-11-23T11:49:27.556Z,6.77
2022-11-23T11:52:04.526Z,4.33
2022-11-23T11:54:39.008Z,8.87
2022-11-23T11:57:13.802Z,6.67
2022-11-23T11:59:45.626Z,7.67
2022-11-23T12:02:23.828Z,8.10
2022-11-23T12:04:58.872Z,6.57
2022-11-23T12:07:33.237Z,5.13
2022-11-23T12:10:11.753Z,8.73
2022-11-23T12:12:40.833Z,6.23
2022-11-23T12:15:47.223Z,6.10
2022-11-23T12:18:24.701Z,7.10
2022-11-23T12:21:01.895Z,5.63
2022-11-23T12:23:46.210Z,8.57
2022-11-23T12:26:25.158Z,6.77
2022-11-23T12:29:17.948Z,7.80
2022-11-23T12:31:50.901Z,8.87
2022-11-23T12:34:55.858Z,6.03
2022-11-23T12:37:35.966Z,6.10
2022-11-23T12:40:30.818Z,9.17
2022-11-23T12:43:02.713Z,8.03
2022-11-23T12:45:52.545Z,5.27
2022-11-23T12:48:34.985Z,4.77
2022-11-23T12:51:10.838Z,6.17
2022-11-23T12:53:46.961Z,4.40
2022-11-23T12:56:27.734Z,7.63
2022-11-23T12:58:59.205Z,5.73
2022-11-23T13:01:32.149Z,7.47
2022-11-23T13:04:40.820Z,5.93
2022-11-23T13:07:47.600Z,7.53
2022-11-23T13:10:45.905Z,6.67
2022-11-23T13:13:43.195Z,3.50
2022-11-23T13:16:34.158Z,4.97
2022-11-23T13:19:37.355Z,5.17
2022-11-23T13:22:07.184Z,3.00
2022-11-23T13:24:36.642Z,5.37
2022-11-23T13:27:44.684Z,6.20
2022-11-23T13:30:45.655Z,5.40
2022-11-23T13:33:34.241Z,7.50
2022-11-23T13:36:09.504Z,4.07
2022-11-23T13:38:42.861Z,5.77
2022-11-23T13:41:55.319Z,7.03
2022-11-23T13:44:26.738Z,4.93
2022-11-23T13:47:02.201Z,4.97
2022-11-23T13:49:32.222Z,6.63
2022-11-23T13:52:20.401Z,4.40
2022-11-23T13:55:05.354Z,4.80
2022-11-23T13:57:37.248Z,5.37
2022-11-23T14:00:42.411Z,6.10
2022-11-23T14:03:47.769Z,4.60
2022-11-23T14:06:25.582Z,4.63
2022-11-23T14:09:00.614Z,4.57
2022-11-23T14:11:29.323Z,5.27
2022-11-23T14:14:01.851Z,5.30
2022-11-23T14:17:23.736Z,4.47
2022-11-23T14:20:20.163Z,2.93
2022-11-23T14:23:04.262Z,3.57
2022-11-23T14:25:48.996Z,7.83
2022-11-23T14:28:30.909Z,6.57
2022-11-23T14:31:17.281Z,5.27
2022-11-23T14:33:52.933Z,5.53
2022-11-23T14:36:30.372Z,6.53
2022-11-23T14:39:19.333Z,6.80
2022-11-23T14:41:53.208Z,5.77
2022-11-23T14:44:26.973Z,6.33
2022-11-23T14:47:00.799Z,11.27
2022-11-23T14:49:29.034Z,7.97
2022-11-23T14:51:57.333Z,8.20
2022-11-23T14:54:26.591Z,6.73
2022-11-23T14:56:59.108Z,7.27
2022-11-23T14:59:31.369Z,6.40
2022-11-23T15:02:01.976Z,8.37
2022-11-23T15:04:35.111Z,8.20
2022-11-23T15:07:07.800Z,8.70
2022-11-23T15:09:49.715Z,9.40
2022-11-23T15:12:24.085Z,5.60
2022-11-23T15:14:53.858Z,6.03
2022-11-23T15:17:23.331Z,5.30
2022-11-23T15:19:55.352Z,9.80
2022-11-23T15:22:24.594Z,4.80
2022-11-23T15:24:54.344Z,5.83
2022-11-23T15:27:28.415Z,6.20
2022-11-23T15:29:58.181Z,8.60
2022-11-23T15:32:31.283Z,7.43
2022-11-23T15:35:03.885Z,9.47
2022-11-23T15:37:32.705Z,5.70
2022-11-23T15:40:12.247Z,8.80
2022-11-23T15:42:40.926Z,7.33
2022-11-23T15:45:42.471Z,7.47
2022-11-23T15:48:14.443Z,9.07
2022-11-23T15:50:50.992Z,6.90
2022-11-23T15:53:19.579Z,8.67
2022-11-23T15:55:49.988Z,5.87
2022-11-23T15:58:19.663Z,4.17
2022-11-23T16:00:56.028Z,7.43
2022-11-23T16:03:52.344Z,5.63
2022-11-23T16:06:25.706Z,5.83
2022-11-23T16:08:53.437Z,5.27
2022-11-23T16:11:29.724Z,6.40
2022-11-23T16:14:16.338Z,5.47
2022-11-23T16:16:46.529Z,4.30
2022-11-23T16:19:28.552Z,8.77
2022-11-23T16:22:02.601Z,5.67
2022-11-23T16:24:33.719Z,8.47
2022-11-23T16:27:13.243Z,5.67
2022-11-23T16:29:41.447Z,5.77
2022-11-23T16:32:23.948Z,4.97
2022-11-23T16:34:55.819Z,5.27
2022-11-23T16:37:30.798Z,6.67
2022-11-23T16:39:58.595Z,9.00
2022-11-23T16:42:28.033Z,6.20
2022-11-23T16:44:55.833Z,5.50
2022-11-23T16:47:26.500Z,8.57
2022-11-23T16:49:55.477Z,8.00
2022-11-23T16:52:24.359Z,6.67
2022-11-23T16:54:52.920Z,8.50
2022-11-23T16:57:31.026Z,6.00
2022-11-23T17:00:03.788Z,8.10
2022-11-23T17:02:59.722Z,4.77
2022-11-23T17:05:59.624Z,8.13
2022-11-23T17:08:27.332Z,5.93
2022-11-23T17:10:55.052Z,8.53
2022-11-23T17:13:26.383Z,7.17
2022-11-23T17:15:54.274Z,6.80
2022-11-23T17:18:22.460Z,7.60
2022-11-23T17:20:50.333Z,8.47
2022-11-23T17:23:19.646Z,3.70
2022-11-23T17:25:47.362Z,8.73
2022-11-23T17:28:21.195Z,6.03
2022-11-23T17:30:50.621Z,5.30
2022-11-23T17:33:18.609Z,4.23
2022-11-23T17:35:46.564Z,5.47
2022-11-23T17:38:17.709Z,4.60
2022-11-23T17:40:45.624Z,3.40
2022-11-23T17:43:15.043Z,3.60
2022-11-23T17:45:43.953Z,5.00
2022-11-23T17:48:15.850Z,5.40
2022-11-23T17:50:43.607Z,4.50
2022-11-23T17:53:14.526Z,3.30
2022-11-23T17:55:42.578Z,4.20
2022-11-23T17:58:12.611Z,3.60
2022-11-23T18:00:40.396Z,4.13
2022-11-23T18:03:08.326Z,4.97
2022-11-23T18:05:37.711Z,6.97
2022-11-23T18:08:06.026Z,5.50
2022-11-23T18:10:34.012Z,5.53
2022-11-23T18:13:02.376Z,5.07
2022-11-23T18:15:30.528Z,5.97
2022-11-23T18:18:04.232Z,4.57
2022-11-23T18:20:32.530Z,8.23
2022-11-23T18:23:01.635Z,8.20
2022-11-23T18:25:29.563Z,5.63
2022-11-23T18:27:57.355Z,14.20
2022-11-23T18:30:25.306Z,7.53
2022-11-23T18:32:53.304Z,8.90
2022-11-23T18:35:21.427Z,9.07
2022-11-23T18:37:49.262Z,8.13
2022-11-23T18:40:18.749Z,9.27
2022-11-23T18:42:50.254Z,5.77
2022-11-23T18:45:18.150Z,9.47
2022-11-23T18:47:45.928Z,5.07
2022-11-23T18:50:14.207Z,7.93
2022-11-23T18:52:42.002Z,5.10
2022-11-23T18:55:09.933Z,8.33
2022-11-23T18:57:39.014Z,8.00
2022-11-23T19:00:08.045Z,5.40
2022-11-23T19:02:38.573Z,3.83
2022-11-23T19:05:10.170Z,5.83
2022-11-23T19:07:39.571Z,5.60
2022-11-23T19:10:10.943Z,5.80
2022-11-23T19:12:40.244Z,6.93
2022-11-23T19:15:13.058Z,4.77
2022-11-23T19:17:40.917Z,7.17
2022-11-23T19:20:10.267Z,8.50
2022-11-23T19:22:38.042Z,7.33
2022-11-23T19:25:07.057Z,6.63
2022-11-23T19:27:37.310Z,4.60
2022-11-23T19:30:09.006Z,5.03
2022-11-23T19:32:37.197Z,7.47
2022-11-23T19:35:06.806Z,5.77
2022-11-23T19:37:35.954Z,5.20
2022-11-23T19:40:04.249Z,7.53
2022-11-23T19:42:34.975Z,5.27
2022-11-23T19:45:02.980Z,7.33
2022-11-23T19:47:32.469Z,6.37
2022-11-23T19:50:00.262Z,8.77
2022-11-23T19:52:55.586Z,10.23
2022-11-23T19:55:18.074Z,8.43
2022-11-23T19:57:45.864Z,5.97
2022-11-23T20:00:14.172Z,7.20
2022-11-23T20:02:43.340Z,9.27
2022-11-23T20:05:12.855Z,7.70
2022-11-23T20:07:40.676Z,7.13
2022-11-23T20:10:10.135Z,8.13
2022-11-23T20:12:40.835Z,7.87
2022-11-23T20:15:09.430Z,6.37
2022-11-23T20:17:37.241Z,6.47
2022-11-23T20:20:13.447Z,8.00
2022-11-23T20:22:42.911Z,7.90
2022-11-23T20:25:10.934Z,9.03
2022-11-23T20:27:40.901Z,6.30
2022-11-23T20:30:09.705Z,7.03
2022-11-23T20:32:37.740Z,9.27
2022-11-23T20:35:07.860Z,8.50
2022-11-23T20:37:35.563Z,11.13
2022-11-23T20:40:04.078Z,9.20
2022-11-23T20:42:31.957Z,5.70
2022-11-23T20:44:59.811Z,9.27
2022-11-23T20:47:28.472Z,13.07
2022-11-23T20:49:58.691Z,10.73
2022-11-23T20:52:27.939Z,8.90
2022-11-23T20:54:55.779Z,9.27
2022-11-23T20:57:23.589Z,8.17
2022-11-23T20:59:51.422Z,9.90
2022-11-23T21:02:19.289Z,8.50
2022-11-23T21:04:47.228Z,9.23
2022-11-23T21:07:15.200Z,11.00
2022-11-23T21:09:44.742Z,9.90
2022-11-23T21:12:30.325Z,9.40
2022-11-23T21:14:58.147Z,9.00
2022-11-23T21:17:25.878Z,7.93
2022-11-23T21:19:53.652Z,7.20
2022-11-23T21:22:21.509Z,6.93
2022-11-23T21:24:50.656Z,7.43
2022-11-23T21:27:23.144Z,9.10
2022-11-23T21:29:51.366Z,6.97
2022-11-23T21:32:19.248Z,9.43
2022-11-23T21:34:47.494Z,7.40
2022-11-23T21:37:17.232Z,8.53
2022-11-23T21:39:51.164Z,8.40
2022-11-23T21:42:21.983Z,8.93
2022-11-23T21:44:49.727Z,8.47
2022-11-23T21:47:17.517Z,8.37
2022-11-23T21:49:45.250Z,10.17
2022-11-23T21:52:13.085Z,8.27
2022-11-23T21:54:45.680Z,7.00
2022-11-23T21:57:16.449Z,7.97
2022-11-23T21:59:45.620Z,9.00
2022-11-23T22:02:13.460Z,9.50
2022-11-23T22:04:41.280Z,10.50
2022-11-23T22:07:09.110Z,11.00
2022-11-23T22:09:37.986Z,7.90
2022-11-23T22:12:06.359Z,12.70
2022-11-23T22:14:34.354Z,7.33
2022-11-23T22:17:04.127Z,9.80
2022-11-23T22:19:31.819Z,7.73
2022-11-23T22:21:59.540Z,10.47
2022-11-23T22:24:27.242Z,8.07
2022-11-23T22:26:54.927Z,9.37
2022-11-23T22:29:22.703Z,6.00
2022-11-23T22:31:50.388Z,8.57
2022-11-23T22:34:19.503Z,6.30
2022-11-23T22:36:47.200Z,11.07
2022-11-23T22:39:14.934Z,7.00
2022-11-23T22:41:42.804Z,8.07
2022-11-23T22:44:11.014Z,9.53
2022-11-23T22:46:39.695Z,11.53
2022-11-23T22:49:07.631Z,8.30
2022-11-23T22:51:36.859Z,6.80
2022-11-23T22:54:04.774Z,8.67
2022-11-23T22:56:32.696Z,9.00
2022-11-23T22:59:00.841Z,10.77
2022-11-23T23:01:30.996Z,16.00
2022-11-23T23:04:00.437Z,9.50
2022-11-23T23:06:30.146Z,10.27
2022-11-23T23:09:00.732Z,7.73
2022-11-23T23:11:30.271Z,10.20
2022-11-23T23:13:58.795Z,8.90
2022-11-23T23:16:27.521Z,7.43
2022-11-23T23:18:56.438Z,9.80
2022-11-23T23:21:25.044Z,12.47
2022-11-23T23:23:54.473Z,9.03
2022-11-23T23:26:25.181Z,14.00
2022-11-23T23:28:55.459Z,6.33
2022-11-23T23:31:23.485Z,8.37
2022-11-23T23:33:53.505Z,7.87
2022-11-23T23:36:22.626Z,10.77
2022-11-23T23:38:50.851Z,10.93
2022-11-23T23:41:19.169Z,7.40
2022-11-23T23:43:48.951Z,9.27
2022-11-23T23:46:17.387Z,7.53
2022-11-23T23:48:45.820Z,8.90
2022-11-23T23:51:15.068Z,13.37
2022-11-23T23:53:43.835Z,10.13
2022-11-23T23:56:14.622Z,7.33
2022-11-23T23:58:42.493Z,10.23
